Central, UT (84722)

6:02 AM MDT on August 21, 2014 (GMT -0600)
RAWS ENTERPRISE UT US | Change Station
CLOSE
Current Station
Personal Weather Station
Location: Enterprise, UT
Elevation: 5398 ft
Nearby Weather Stations

Elev 5398 ft 37.56 °N, 113.72 °W | Updated 59 minutes ago

Clear
Clear
58 °F
Feels Like 58 °F
N
7
Wind Variable Wind from SW
Gusts 9.0 mph

Today
High -- | Low -- °F
--% Chance of Precip.
Yesterday
High -- | Low -- °F
Precip. -- in
6:55 AM 8:18 PM
Waning Crescent, 15% visible
Pressure 29.96 in
Visibility 10.0 miles
Clouds Clear
Dew Point 48 °F
Humidity 69%
Rainfall 0.00 in
Snow Depth Not available.
UV 0 out of 12
Pollen 6.70 out of 12
Air Quality Not available.
Flu Activity Not available.
METAR KCDC 211153Z AUTO 19004KT 10SM CLR 13/08 A3015 RMK AO2 SLP143 T01280078 10167 20111 50005

More Conditions Fewer Conditions

Pressure 29.96 in
Visibility 10.0 miles
Clouds Clear
Dew Point 48 °F
Humidity 69%
Rainfall 0.00 in
Snow Depth Not available.
UV 0 out of 12
Pollen 6.70 out of 12
Air Quality Not available.
Flu Activity Not available.
METAR KCDC 211153Z AUTO 19004KT 10SM CLR 13/08 A3015 RMK AO2 SLP143 T01280078 10167 20111 50005

More Conditions Fewer Conditions

10-Day Weather Forecast

Almanac

Astronomy

Aug. 21, 2014 Rise Set
Actual Time 6:55 AM MDT 8:18 PM MDT
Civil Twilight 6:28 AM MDT 8:45 PM MDT
Nautical Twilight 5:55 AM MDT 9:18 PM MDT
Astronomical Twilight 5:20 AM MDT 9:52 PM MDT
Moon 3:31 AM MDT 5:48 PM MDT
Length of Visible Light 14h 17m
Length of Day
13h 22m
Tomorrow will be 2m 11s shorter.
Waning Crescent, 15% of the Moon is Illuminated
Today
Waning Crescent
Aug 25
New
Sep 2
First Quarter
Sep 8
Full
Sep 15
Last Quarter

Today's Extremes

State Highs State Lows

Community

WunderPhotos

Upload Photos

1,745,882 photos uploaded!

Nearby

Snow Depth

Station Depth Elevation
Harris Flat 0 in 7800 ft
Long Valley Jct 0 in 7360 ft
Agua Canyon 4 in 8900 ft
Merchant Valley 0 in 8750 ft
Kimberly Mine 0 in 9300 ft

Earthquake Activity

City Distance Mag. Time & Date
No recent earthquake activity has been reported nearby.
Minimum magnitude displayed is 2.5.

Coastal Water Temperatures

Place Temperature
No Stations Reporting

Nearby Weather Stations